createdAt,value
2023-02-01T00:00:08.079Z,100464.41
2023-02-01T00:03:09.784Z,100451.88
2023-02-01T00:06:11.263Z,100455.59
2023-02-01T00:09:13.628Z,100451.19
2023-02-01T00:12:15.101Z,100450.47
2023-02-01T00:15:16.577Z,100456.91
2023-02-01T00:18:18.035Z,100448.09
2023-02-01T00:21:21.404Z,100444.53
2023-02-01T00:24:22.878Z,100451.13
2023-02-01T00:27:24.349Z,100442.28
2023-02-01T00:30:25.835Z,100432.47
2023-02-01T00:33:28.159Z,100436.16
2023-02-01T00:36:30.306Z,100444.47
2023-02-01T00:39:31.818Z,100447.31
2023-02-01T00:42:33.318Z,100447.50
2023-02-01T00:45:34.788Z,100438.66
2023-02-01T00:48:37.164Z,100443.22
2023-02-01T00:51:38.686Z,100445.94
2023-02-01T00:54:40.240Z,100429.50
2023-02-01T00:57:41.819Z,100425.94
2023-02-01T01:00:43.347Z,100423.09
2023-02-01T01:03:47.770Z,100422.06
2023-02-01T01:06:49.314Z,100418.34
2023-02-01T01:09:50.907Z,100407.50
2023-02-01T01:12:52.398Z,100415.81
2023-02-01T01:15:53.921Z,100407.50
2023-02-01T01:18:56.123Z,100412.94
2023-02-01T01:21:57.602Z,100413.09
2023-02-01T01:24:59.106Z,100407.69
2023-02-01T01:28:00.579Z,100412.41
2023-02-01T01:31:02.258Z,100399.69
2023-02-01T01:34:04.318Z,100407.13
2023-02-01T01:37:06.393Z,100392.72
2023-02-01T01:40:10.347Z,100388.16
2023-02-01T01:43:17.636Z,100396.28
2023-02-01T01:46:25.939Z,100404.59
2023-02-01T01:49:27.635Z,100400.34
2023-02-01T01:52:29.365Z,100400.34
2023-02-01T01:55:35.538Z,100397.63
2023-02-01T01:58:37.797Z,100393.19
2023-02-01T02:01:39.728Z,100383.38
2023-02-01T02:04:41.316Z,100380.66
2023-02-01T02:07:47.115Z,100376.28
2023-02-01T02:11:01.684Z,100379.97
2023-02-01T02:14:08.804Z,100381.84
2023-02-01T02:17:35.278Z,100381.97
2023-02-01T02:20:55.661Z,100364.16
2023-02-01T02:24:12.386Z,100372.31
2023-02-01T02:27:25.268Z,100361.63
2023-02-01T02:30:29.229Z,100351.97
2023-02-01T02:33:52.611Z,100360.78
2023-02-01T02:37:13.277Z,100348.09
2023-02-01T02:40:30.237Z,100344.38
2023-02-01T02:44:22.153Z,100337.97
2023-02-01T02:47:52.783Z,100329.81
2023-02-01T02:51:31.215Z,100328.81
2023-02-01T02:54:51.755Z,100322.69
2023-02-01T02:58:16.263Z,100328.09
2023-02-01T03:01:36.372Z,100307.44
2023-02-01T03:04:38.640Z,100308.44
2023-02-01T03:08:14.155Z,100305.59
2023-02-01T03:11:16.415Z,100299.47
2023-02-01T03:14:22.023Z,100297.59
2023-02-01T03:17:34.935Z,100300.50
2023-02-01T03:20:40.348Z,100289.66
2023-02-01T03:23:43.811Z,100290.50
2023-02-01T03:26:58.778Z,100285.09
2023-02-01T03:30:24.115Z,100292.19
2023-02-01T03:33:28.059Z,100287.94
2023-02-01T03:36:41.757Z,100284.38
2023-02-01T03:39:58.402Z,100274.56
2023-02-01T03:43:01.409Z,100273.03
2023-02-01T03:46:10.194Z,100270.31
2023-02-01T03:49:16.986Z,100272.19
2023-02-01T03:52:29.614Z,100251.50
2023-02-01T03:55:32.513Z,100257.25
2023-02-01T03:58:34.295Z,100243.84
2023-02-01T04:01:35.949Z,100241.31
2023-02-01T04:04:37.674Z,100245.00
2023-02-01T04:07:39.529Z,100241.31
2023-02-01T04:10:41.046Z,100233.88
2023-02-01T04:13:44.204Z,100222.72
2023-02-01T04:16:45.925Z,100232.53
2023-02-01T04:19:47.477Z,100227.13
2023-02-01T04:22:48.983Z,100222.56
2023-02-01T04:25:50.493Z,100222.41
2023-02-01T04:28:53.613Z,100219.53
2023-02-01T04:31:55.167Z,100208.53
2023-02-01T04:34:56.684Z,100209.38
2023-02-01T04:37:58.150Z,100203.97
2023-02-01T04:41:00.575Z,100200.06
2023-02-01T04:44:02.354Z,100189.09
2023-02-01T04:47:03.868Z,100192.50
2023-02-01T04:50:06.803Z,100187.78
2023-02-01T04:53:09.362Z,100184.03
2023-02-01T04:56:11.212Z,100187.44
2023-02-01T04:59:13.057Z,100184.56
2023-02-01T05:02:14.544Z,100180.00
2023-02-01T05:05:16.014Z,100167.31
2023-02-01T05:08:17.521Z,100164.41
2023-02-01T05:11:57.335Z,100164.41
2023-02-01T05:14:58.781Z,100170.03
2023-02-01T05:18:00.297Z,100160.16
2023-02-01T05:21:02.729Z,100160.16
2023-02-01T05:24:10.340Z,100149.50
2023-02-01T05:27:12.048Z,100155.94
2023-02-01T05:30:13.898Z,100158.81
2023-02-01T05:33:15.490Z,100155.25
2023-02-01T05:36:17.304Z,100158.97
2023-02-01T05:39:18.850Z,100160.00
2023-02-01T05:42:20.332Z,100153.88
2023-02-01T05:45:21.846Z,100160.47
2023-02-01T05:48:23.391Z,100158.78
2023-02-01T05:51:24.888Z,100155.19
2023-02-01T05:54:26.381Z,100153.38
2023-02-01T05:57:27.913Z,100150.81
2023-02-01T06:00:29.422Z,100163.19
2023-02-01T06:03:30.990Z,100149.63
2023-02-01T06:06:32.767Z,100152.00
2023-02-01T06:09:35.192Z,100143.88
2023-02-01T06:12:36.682Z,100140.19
2023-02-01T06:15:43.329Z,100140.19
2023-02-01T06:18:44.891Z,100130.00
2023-02-01T06:21:46.593Z,100120.88
2023-02-01T06:24:48.652Z,100126.13
2023-02-01T06:27:50.144Z,100127.84
2023-02-01T06:30:52.361Z,100126.81
2023-02-01T06:33:54.533Z,100130.38
2023-02-01T06:36:56.059Z,100145.63
2023-02-01T06:39:57.511Z,100141.19
2023-02-01T06:42:59.388Z,100150.03
2023-02-01T06:46:03.445Z,100156.28
2023-02-01T06:49:05.011Z,100141.91
2023-02-01T06:52:06.519Z,100154.47
2023-02-01T06:55:08.273Z,100157.31
2023-02-01T06:58:09.845Z,100173.56
2023-02-01T07:01:11.885Z,100180.00
2023-02-01T07:04:13.593Z,100189.13
2023-02-01T07:07:16.098Z,100179.47
2023-02-01T07:10:18.074Z,100186.06
2023-02-01T07:13:19.596Z,100175.41
2023-02-01T07:16:21.476Z,100162.84
2023-02-01T07:19:23.023Z,100172.16
2023-02-01T07:22:24.505Z,100175.03
2023-02-01T07:25:26.085Z,100185.00
2023-02-01T07:28:30.909Z,100177.75
2023-02-01T07:31:32.394Z,100169.06
2023-02-01T07:34:34.811Z,100166.53
2023-02-01T07:37:37.102Z,100176.50
2023-02-01T07:40:38.604Z,100167.84
2023-02-01T07:43:40.109Z,100179.72
2023-02-01T07:46:41.656Z,100171.88
2023-02-01T07:49:43.111Z,100170.34
2023-02-01T07:52:44.714Z,100181.34
2023-02-01T07:55:46.179Z,100187.75
2023-02-01T07:58:57.218Z,100184.06
2023-02-01T08:01:58.897Z,100185.38
2023-02-01T08:05:00.469Z,100196.38
2023-02-01T08:08:02.017Z,100191.97
2023-02-01T08:11:06.359Z,100179.25
2023-02-01T08:14:07.947Z,100198.53
2023-02-01T08:17:09.470Z,100212.25
2023-02-01T08:20:12.178Z,100201.56
2023-02-01T08:23:13.728Z,100208.84
2023-02-01T08:26:23.824Z,100211.56
2023-02-01T08:29:25.464Z,100218.94
2023-02-01T08:32:28.086Z,100218.94
2023-02-01T08:35:42.410Z,100229.94
2023-02-01T08:38:45.041Z,100220.13
2023-02-01T08:42:06.541Z,100220.25
2023-02-01T08:45:08.890Z,100214.84
2023-02-01T08:48:10.417Z,100217.72
2023-02-01T08:51:13.474Z,100219.56
2023-02-01T08:54:14.965Z,100208.06
2023-02-01T08:57:16.507Z,100224.44
2023-02-01T09:00:18.612Z,100229.03
2023-02-01T09:03:20.281Z,100216.47
2023-02-01T09:06:22.031Z,100226.47
2023-02-01T09:09:24.409Z,100221.88
2023-02-01T09:12:25.981Z,100219.19
2023-02-01T09:15:27.751Z,100217.50
2023-02-01T09:18:29.399Z,100219.34
2023-02-01T09:21:31.040Z,100211.25
2023-02-01T09:24:32.584Z,100208.53
2023-02-01T09:27:34.748Z,100202.94
2023-02-01T09:30:37.880Z,100211.75
2023-02-01T09:33:40.995Z,100213.47
2023-02-01T09:36:42.483Z,100226.84
2023-02-01T09:39:44.156Z,100225.84
2023-02-01T09:42:59.411Z,100226.38
2023-02-01T09:46:22.906Z,100226.38
2023-02-01T09:49:30.492Z,100227.41
2023-02-01T09:52:58.455Z,100221.81
2023-02-01T09:56:16.395Z,100226.38
2023-02-01T09:59:29.976Z,100240.94
2023-02-01T10:02:38.113Z,100237.53
2023-02-01T10:06:01.392Z,100223.16
2023-02-01T10:09:31.695Z,100231.56
2023-02-01T10:12:33.130Z,100237.16
2023-02-01T10:16:09.186Z,100232.44
2023-02-01T10:19:33.783Z,100232.56
2023-02-01T10:23:13.813Z,100223.59
2023-02-01T10:26:28.291Z,100226.47
2023-02-01T10:29:40.256Z,100232.06
2023-02-01T10:32:42.234Z,100223.06
2023-02-01T10:35:45.737Z,100216.66
2023-02-01T10:38:47.443Z,100212.06
2023-02-01T10:41:52.181Z,100211.94
2023-02-01T10:44:55.700Z,100209.22
2023-02-01T10:47:59.350Z,100207.19
2023-02-01T10:51:22.083Z,100197.22
2023-02-01T10:54:36.023Z,100205.19
2023-02-01T10:57:37.468Z,100215.16
2023-02-01T11:00:44.496Z,100204.00
2023-02-01T11:03:54.671Z,100196.44
2023-02-01T11:07:18.555Z,100198.13
2023-02-01T11:10:41.724Z,100194.44
2023-02-01T11:13:43.818Z,100185.47
2023-02-01T11:16:50.821Z,100174.50
2023-02-01T11:20:06.865Z,100174.50
2023-02-01T11:23:20.601Z,100175.34
2023-02-01T11:26:27.664Z,100182.47
2023-02-01T11:29:37.772Z,100174.03
2023-02-01T11:32:40.035Z,100166.41
2023-02-01T11:35:43.173Z,100157.97
2023-02-01T11:39:12.848Z,100143.94
2023-02-01T11:42:16.964Z,100156.66
2023-02-01T11:45:18.417Z,100116.88
2023-02-01T11:48:26.821Z,100103.50
2023-02-01T11:52:02.901Z,100105.19
2023-02-01T11:55:55.168Z,100083.69
2023-02-01T11:59:56.391Z,100077.59
2023-02-01T12:03:35.853Z,100090.25
2023-02-01T12:06:52.598Z,100067.06
2023-02-01T12:09:54.719Z,100058.44
2023-02-01T12:13:20.297Z,100061.97
2023-02-01T12:16:49.370Z,100048.63
2023-02-01T12:19:59.707Z,100034.41
2023-02-01T12:23:28.631Z,100037.25
2023-02-01T12:26:32.986Z,100035.69
2023-02-01T12:29:38.753Z,100022.16
2023-02-01T12:33:07.625Z,100013.31
2023-02-01T12:36:21.257Z,100010.81
2023-02-01T12:39:45.383Z,100026.56
2023-02-01T12:42:53.021Z,100021.31
2023-02-01T12:46:02.571Z,100006.81
2023-02-01T12:49:11.145Z,99992.38
2023-02-01T12:52:19.562Z,99977.50
2023-02-01T12:55:33.124Z,99991.91
2023-02-01T12:58:45.668Z,99970.94
2023-02-01T13:02:00.329Z,99970.38
2023-02-01T13:05:17.392Z,99996.63
2023-02-01T13:08:24.977Z,99980.47
2023-02-01T13:11:37.679Z,99976.00
2023-02-01T13:14:47.325Z,99968.84
2023-02-01T13:17:52.296Z,99965.03
2023-02-01T13:21:07.949Z,99962.41
2023-02-01T13:24:43.769Z,99961.63
2023-02-01T13:27:47.132Z,99993.28
2023-02-01T13:31:10.442Z,99998.88
2023-02-01T13:34:30.910Z,100003.69
2023-02-01T13:37:38.175Z,99999.63
2023-02-01T13:40:52.014Z,100004.44
2023-02-01T13:43:57.300Z,99996.97
2023-02-01T13:47:03.835Z,100046.22
2023-02-01T13:50:24.001Z,100141.28
2023-02-01T13:53:33.318Z,100154.66
2023-02-01T13:56:44.691Z,100137.25
2023-02-01T13:59:46.146Z,100140.66
2023-02-01T14:02:50.074Z,100141.34
2023-02-01T14:05:51.562Z,100126.13
2023-02-01T14:09:14.505Z,100135.81
2023-02-01T14:12:47.007Z,100135.63
2023-02-01T14:16:17.834Z,100150.88
2023-02-01T14:19:22.618Z,100133.63
2023-02-01T14:22:36.499Z,100137.03
2023-02-01T14:25:38.639Z,100130.59
2023-02-01T14:28:45.556Z,100142.94
2023-02-01T14:32:03.715Z,100115.75
2023-02-01T14:35:20.664Z,100131.50
2023-02-01T14:38:22.577Z,100092.59
2023-02-01T14:41:33.818Z,100088.72
2023-02-01T14:44:37.951Z,100108.50
2023-02-01T14:47:40.256Z,100113.78
2023-02-01T14:50:50.511Z,100124.28
2023-02-01T14:53:52.311Z,100128.84
2023-02-01T14:56:55.560Z,100123.25
2023-02-01T15:00:07.709Z,100136.66
2023-02-01T15:03:34.591Z,100126.66
2023-02-01T15:06:42.081Z,100132.94
2023-02-01T15:09:47.905Z,100129.56
2023-02-01T15:12:50.303Z,100132.25
2023-02-01T15:16:13.332Z,100135.81
2023-02-01T15:19:15.667Z,100120.41
2023-02-01T15:22:20.257Z,100124.81
2023-02-01T15:25:35.136Z,100124.81
2023-02-01T15:28:36.697Z,100120.25
2023-02-01T15:31:47.885Z,100107.56
2023-02-01T15:34:50.722Z,100110.28
2023-02-01T15:37:53.083Z,100118.22
2023-02-01T15:41:08.572Z,100128.06
2023-02-01T15:44:43.766Z,100136.19
2023-02-01T15:47:49.419Z,100146.84
2023-02-01T15:50:51.773Z,100141.28
2023-02-01T15:53:53.492Z,100142.84
2023-02-01T15:56:57.038Z,100147.09
2023-02-01T16:00:02.059Z,100139.66
2023-02-01T16:03:44.535Z,100138.50
2023-02-01T16:06:56.156Z,100136.63
2023-02-01T16:10:00.147Z,100136.31
2023-02-01T16:13:01.757Z,100131.75
2023-02-01T16:16:04.935Z,100139.56
2023-02-01T16:19:06.439Z,100136.84
2023-02-01T16:22:07.916Z,100137.69
2023-02-01T16:25:09.556Z,100151.09
2023-02-01T16:28:11.229Z,100145.34
2023-02-01T16:31:20.185Z,100143.34
2023-02-01T16:34:21.948Z,100145.84
2023-02-01T16:37:25.503Z,100150.94
2023-02-01T16:40:26.966Z,100139.81
2023-02-01T16:43:28.592Z,100149.47
2023-02-01T16:46:40.233Z,100143.72
2023-02-01T16:49:44.046Z,100139.16
2023-02-01T16:52:45.586Z,100157.28
2023-02-01T16:55:50.251Z,100169.50
2023-02-01T16:58:52.453Z,100165.69
2023-02-01T17:01:53.950Z,100167.53
2023-02-01T17:04:55.493Z,100153.66
2023-02-01T17:08:04.856Z,100163.44
2023-02-01T17:11:07.415Z,100169.47
2023-02-01T17:14:20.623Z,100189.94
2023-02-01T17:17:36.914Z,100184.69
2023-02-01T17:20:40.068Z,100187.72
2023-02-01T17:23:41.741Z,100179.66
2023-02-01T17:26:44.634Z,100182.91
2023-02-01T17:29:47.047Z,100192.50
2023-02-01T17:32:48.737Z,100188.59
2023-02-01T17:35:51.368Z,100205.59
2023-02-01T17:39:04.788Z,100191.16
2023-02-01T17:42:11.468Z,100192.06
2023-02-01T17:45:36.681Z,100188.44
2023-02-01T17:48:39.423Z,100180.53
2023-02-01T17:51:41.621Z,100194.31
2023-02-01T17:54:43.096Z,100205.38
2023-02-01T17:57:45.080Z,100192.91
2023-02-01T18:00:48.183Z,100192.44
2023-02-01T18:03:50.822Z,100185.72
2023-02-01T18:06:52.387Z,100202.34
2023-02-01T18:09:53.876Z,100203.69
2023-02-01T18:12:55.973Z,100203.25
2023-02-01T18:15:59.776Z,100209.06
2023-02-01T18:19:05.029Z,100204.19
2023-02-01T18:22:07.374Z,100221.81
2023-02-01T18:25:22.788Z,100213.19
2023-02-01T18:28:24.534Z,100208.50
2023-02-01T18:31:30.074Z,100214.41
2023-02-01T18:34:31.670Z,100201.75
2023-02-01T18:37:33.391Z,100209.56
2023-02-01T18:40:39.542Z,100205.69
2023-02-01T18:43:41.052Z,100199.22
2023-02-01T18:46:43.485Z,100194.38
2023-02-01T18:49:44.949Z,100186.06
2023-02-01T18:52:47.242Z,100177.44
2023-02-01T18:55:49.559Z,100210.47
2023-02-01T18:58:51.065Z,100199.16
2023-02-01T19:01:52.631Z,100206.97
2023-02-01T19:04:54.225Z,100204.63
2023-02-01T19:07:55.793Z,100207.88
2023-02-01T19:10:57.273Z,100228.38
2023-02-01T19:13:58.787Z,100242.94
2023-02-01T19:17:00.400Z,100238.19
2023-02-01T19:20:02.170Z,100231.78
2023-02-01T19:23:03.931Z,100238.75
2023-02-01T19:26:11.223Z,100236.56
2023-02-01T19:29:12.706Z,100238.09
2023-02-01T19:32:14.562Z,100245.91
2023-02-01T19:35:21.847Z,100241.16
2023-02-01T19:38:23.814Z,100234.72
2023-02-01T19:41:25.353Z,100242.84
2023-02-01T19:44:29.953Z,100246.25
2023-02-01T19:47:31.517Z,100237.97
2023-02-01T19:50:33.148Z,100248.81
2023-02-01T19:53:34.714Z,100251.34
2023-02-01T19:56:36.585Z,100256.78
2023-02-01T19:59:38.263Z,100268.16
2023-02-01T20:02:39.482Z,100257.31
2023-02-01T20:05:41.026Z,100264.75
2023-02-01T20:08:42.694Z,100271.69
2023-02-01T20:11:44.893Z,100282.31
2023-02-01T20:14:46.427Z,100271.66
2023-02-01T20:17:47.906Z,100268.06
2023-02-01T20:20:49.466Z,100277.91
2023-02-01T20:23:51.015Z,100280.44
2023-02-01T20:26:53.397Z,100272.31
2023-02-01T20:29:54.945Z,100269.78
2023-02-01T20:32:56.488Z,100279.09
2023-02-01T20:35:58.231Z,100283.81
2023-02-01T20:38:59.841Z,100288.38
2023-02-01T20:42:01.368Z,100287.22
2023-02-01T20:45:04.966Z,100289.75
2023-02-01T20:48:06.739Z,100290.63
2023-02-01T20:51:09.841Z,100287.72
2023-02-01T20:54:11.522Z,100291.28
2023-02-01T20:57:13.056Z,100299.28
2023-02-01T21:00:15.456Z,100291.13
2023-02-01T21:03:17.548Z,100301.84
2023-02-01T21:06:19.096Z,100299.13
2023-02-01T21:09:20.704Z,100303.53
2023-02-01T21:12:22.683Z,100307.91
2023-02-01T21:15:26.223Z,100324.88
2023-02-01T21:18:28.213Z,100307.78
2023-02-01T21:21:29.890Z,100319.47
2023-02-01T21:24:31.419Z,100309.63
2023-02-01T21:27:33.034Z,100323.91
2023-02-01T21:30:34.656Z,100322.03
2023-02-01T21:33:36.507Z,100331.16
2023-02-01T21:36:38.266Z,100339.13
2023-02-01T21:39:39.809Z,100341.00
2023-02-01T21:42:43.572Z,100332.88
2023-02-01T21:45:51.324Z,100329.31
2023-02-01T21:49:04.337Z,100337.28
2023-02-01T21:52:07.685Z,100337.44
2023-02-01T21:55:10.224Z,100335.59
2023-02-01T21:58:14.752Z,100333.72
2023-02-01T22:01:16.350Z,100343.72
2023-02-01T22:04:17.878Z,100358.13
2023-02-01T22:07:19.701Z,100342.88
2023-02-01T22:10:21.328Z,100346.56
2023-02-01T22:13:22.778Z,100357.59
2023-02-01T22:16:24.562Z,100370.28
2023-02-01T22:19:26.363Z,100359.63
2023-02-01T22:22:27.819Z,100368.75
2023-02-01T22:25:29.620Z,100369.75
2023-02-01T22:28:33.750Z,100379.91
2023-02-01T22:31:36.112Z,100370.09
2023-02-01T22:34:38.990Z,100389.22
2023-02-01T22:37:40.496Z,100387.53
2023-02-01T22:40:42.070Z,100389.38
2023-02-01T22:43:44.261Z,100392.25
2023-02-01T22:46:45.878Z,100399.53
2023-02-01T22:49:47.440Z,100394.25
2023-02-01T22:52:49.031Z,100393.41
2023-02-01T22:55:51.924Z,100392.72
2023-02-01T22:58:55.327Z,100394.56
2023-02-01T23:01:56.836Z,100400.13
2023-02-01T23:04:58.506Z,100407.59
2023-02-01T23:08:00.003Z,100405.75
2023-02-01T23:11:04.912Z,100405.75
2023-02-01T23:14:06.889Z,100412.31
2023-02-01T23:17:08.383Z,100415.19
2023-02-01T23:20:16.976Z,100419.75
2023-02-01T23:23:18.494Z,100408.38
2023-02-01T23:26:21.385Z,100402.97
2023-02-01T23:29:22.877Z,100407.69
2023-02-01T23:32:24.461Z,100411.38
2023-02-01T23:35:28.934Z,100415.13
2023-02-01T23:38:30.862Z,100405.28
2023-02-01T23:41:32.824Z,100408.16
2023-02-01T23:44:34.315Z,100406.47
2023-02-01T23:47:35.822Z,100415.56
2023-02-01T23:50:37.412Z,100418.28
2023-02-01T23:53:39.324Z,100423.88
2023-02-01T23:56:43.089Z,100433.84
2023-02-01T23:59:44.606Z,100437.72
